Time;durP1;ratioP1;P1;durP2;ratioP2;P2;SDS_P1;SDS_P2;PMS_P1;PMS_P2;Temp;Humidity;BMP_temperature;BMP_pressure;BME280_temperature;BME280_humidity;BME280_pressure;Samples;Min_cycle;Max_cycle;Signal;HPM_P1;HPM_P2
2022/10/05 00:01:53;;;;;;;2.70;2.50;;;;;;;10.45;98.71;100436.55;1699971;83;21035;-72
2022/10/05 00:04:23;;;;;;;2.30;2.00;;;;;;;10.45;98.83;100437.89;1687157;83;21024;-71
2022/10/05 00:07:03;;;;;;;2.00;1.90;;;;;;;10.46;98.90;100436.89;1689108;83;21072;-71
2022/10/05 00:09:31;;;;;;;2.60;2.40;;;;;;;10.48;98.97;100437.53;1684588;84;20976;-72
2022/10/05 00:11:57;;;;;;;2.80;2.17;;;;;;;10.48;98.94;100441.02;1691206;84;21030;-72
2022/10/05 00:14:31;;;;;;;4.17;2.17;;;;;;;10.48;99.01;100442.86;1687017;81;21027;-71
2022/10/05 00:17:00;;;;;;;2.30;2.20;;;;;;;10.49;99.05;100438.68;1683275;81;21001;-71
2022/10/05 00:19:34;;;;;;;2.90;2.20;;;;;;;10.49;99.22;100448.48;1687870;84;21089;-71
2022/10/05 00:22:09;;;;;;;3.13;2.30;;;;;;;10.46;99.31;100450.21;1677857;84;21010;-71
2022/10/05 00:24:35;;;;;;;2.30;2.17;;;;;;;10.45;99.46;100452.54;1690879;81;20950;-71
2022/10/05 00:27:08;;;;;;;;;;;;;;;10.46;99.56;100453.69;1689355;84;21494;-70
2022/10/05 00:29:34;;;;;;;2.40;2.20;;;;;;;10.47;99.56;100453.18;1686206;84;20117;-71
2022/10/05 00:32:00;;;;;;;3.77;1.50;;;;;;;10.41;99.85;100450.75;1679797;84;21623;-71
2022/10/05 00:34:26;;;;;;;4.87;1.85;;;;;;;10.45;99.85;100455.20;1683683;84;21161;-71
2022/10/05 00:36:53;;;;;;;2.22;2.12;;;;;;;10.44;99.83;100455.72;1674208;84;21557;-72
2022/10/05 00:39:19;;;;;;;2.27;2.05;;;;;;;10.44;99.77;100453.56;1671511;84;20990;-71
2022/10/05 00:42:39;;;;;;;2.40;2.20;;;;;;;10.44;99.76;100461.56;1683659;83;21021;-73
2022/10/05 00:45:24;;;;;;;2.23;1.70;;;;;;;10.41;99.68;100461.92;1674294;84;21480;-70
2022/10/05 00:48:05;;;;;;;2.67;2.47;;;;;;;10.37;99.97;100472.12;1673105;84;21554;-71
2022/10/05 00:50:46;;;;;;;3.70;2.60;;;;;;;10.33;99.99;100468.98;1686446;84;21041;-72
2022/10/05 00:53:53;;;;;;;3.70;2.10;;;;;;;10.31;100.00;100473.67;1685677;83;20988;-73
2022/10/05 00:56:37;;;;;;;4.33;2.47;;;;;;;10.29;100.00;100482.33;1670317;84;21060;-73
2022/10/05 00:59:42;;;;;;;2.67;2.20;;;;;;;10.27;100.00;100486.20;1679451;84;21032;-73
2022/10/05 01:02:25;;;;;;;1.60;1.50;;;;;;;10.26;100.00;100494.67;1692880;83;20997;-74
2022/10/05 01:05:00;;;;;;;5.87;2.37;;;;;;;10.26;100.00;100494.67;1688312;84;21037;-73
2022/10/05 01:07:47;;;;;;;1.97;1.87;;;;;;;10.28;100.00;100491.34;1676587;84;21092;-72
2022/10/05 01:10:28;;;;;;;3.33;2.30;;;;;;;10.30;100.00;100502.68;1665349;84;21048;-74
2022/10/05 01:13:10;;;;;;;3.43;2.07;;;;;;;10.31;100.00;100501.66;1684675;84;22108;-71
2022/10/05 01:16:02;;;;;;;3.13;1.97;;;;;;;10.31;100.00;100512.31;1669502;84;21056;-71
2022/10/05 01:19:09;;;;;;;3.97;2.00;;;;;;;10.32;99.97;100511.80;1682150;84;21035;-70
2022/10/05 01:21:52;;;;;;;3.07;1.80;;;;;;;10.33;99.95;100516.95;1685468;83;21038;-73
2022/10/05 01:24:46;;;;;;;1.70;1.60;;;;;;;10.35;99.89;100528.77;1686969;84;21077;-70
2022/10/05 01:27:49;;;;;;;4.40;1.60;;;;;;;10.36;99.70;100525.11;1672671;84;21096;-71
2022/10/05 01:30:19;;;;;;;3.20;1.97;;;;;;;10.33;99.34;100534.27;1675444;84;21043;-72
2022/10/05 01:33:06;;;;;;;1.67;1.20;;;;;;;10.37;99.12;100531.25;1692578;81;21135;-72
2022/10/05 01:35:53;;;;;;;1.95;1.40;;;;;;;10.38;98.95;100544.88;1685422;84;21581;-71
2022/10/05 01:39:00;;;;;;;3.85;2.05;;;;;;;10.41;98.67;100544.53;1682630;84;21033;-72
2022/10/05 01:41:35;;;;;;;1.53;1.30;;;;;;;10.40;98.41;100554.88;1676545;81;21104;-71
2022/10/05 01:44:18;;;;;;;1.43;1.23;;;;;;;10.32;98.27;100541.11;1684191;84;21016;-70
2022/10/05 01:47:02;;;;;;;5.40;1.93;;;;;;;10.31;98.10;100558.12;1673010;84;21048;-70
2022/10/05 01:49:51;;;;;;;2.70;1.30;;;;;;;10.32;98.18;100559.75;1623229;87;20999;-71
2022/10/05 01:52:49;;;;;;;2.80;1.80;;;;;;;10.32;97.94;100563.75;1683905;84;21013;-75
2022/10/05 01:55:46;;;;;;;6.80;1.43;;;;;;;10.31;97.65;100580.25;1687018;84;21667;-73
2022/10/05 01:58:37;;;;;;;1.67;1.57;;;;;;;10.32;97.68;100577.92;1687344;82;21021;-70
2022/10/05 02:01:44;;;;;;;1.50;1.40;;;;;;;10.34;97.71;100577.75;1685482;83;20965;-74
2022/10/05 02:04:25;;;;;;;2.10;1.50;;;;;;;10.37;97.49;100581.36;1683231;84;21025;-71
2022/10/05 02:06:52;;;;;;;2.17;1.47;;;;;;;10.33;97.18;100590.22;1682511;84;21044;-72
2022/10/05 02:09:29;;;;;;;2.07;1.53;;;;;;;10.31;97.28;100593.57;1686713;84;20992;-71
2022/10/05 02:12:04;;;;;;;1.75;0.90;;;;;;;10.34;97.18;100592.41;1685709;84;21017;-70
2022/10/05 02:14:43;;;;;;;1.53;1.43;;;;;;;10.38;97.05;100594.17;1672809;84;21545;-71
2022/10/05 02:17:27;;;;;;;6.37;2.15;;;;;;;10.37;96.98;100596.02;1661713;84;20961;-73
2022/10/05 02:20:05;;;;;;;6.53;1.57;;;;;;;10.36;96.89;100605.04;1686955;84;21134;-70
2022/10/05 02:22:37;;;;;;;1.30;1.20;;;;;;;10.35;96.67;100602.55;1691765;84;21002;-73
2022/10/05 02:25:13;;;;;;;1.40;1.17;;;;;;;10.31;96.71;100614.89;1686349;84;20985;-71
2022/10/05 02:27:48;;;;;;;1.50;1.40;;;;;;;10.35;96.82;100617.20;1686264;84;21002;-71
2022/10/05 02:30:16;;;;;;;3.03;1.50;;;;;;;10.35;96.46;100613.20;1697891;83;21016;-71
2022/10/05 02:32:57;;;;;;;2.27;1.13;;;;;;;10.33;96.39;100625.38;1683739;84;21143;-71
2022/10/05 02:35:24;;;;;;;2.42;1.47;;;;;;;10.31;96.41;100629.54;1687159;84;21501;-71
2022/10/05 02:38:15;;;;;;;;;;;;;;;10.30;96.36;100630.56;1693627;82;20991;-70
2022/10/05 02:41:15;;;;;;;3.47;1.40;;;;;;;10.30;96.33;100631.02;1685179;84;20098;-70
2022/10/05 02:44:08;;;;;;;1.73;1.60;;;;;;;10.21;96.18;100634.27;1692470;84;21017;-70
2022/10/05 02:46:46;;;;;;;1.73;1.23;;;;;;;10.23;96.35;100640.76;1688414;84;21521;-71
2022/10/05 02:49:48;;;;;;;2.07;1.47;;;;;;;10.20;96.19;100637.92;1672842;84;21125;-71
2022/10/05 02:52:44;;;;;;;3.13;1.20;;;;;;;10.16;95.88;100643.29;1688642;84;21020;-70
2022/10/05 02:55:24;;;;;;;2.67;1.07;;;;;;;10.10;96.00;100638.69;1672353;85;21044;-72
2022/10/05 02:58:14;;;;;;;1.87;1.00;;;;;;;10.08;96.03;100628.20;1690545;83;21071;-71
2022/10/05 03:00:49;;;;;;;1.10;1.07;;;;;;;10.10;96.08;100629.36;1692490;83;20989;-75
2022/10/05 03:03:51;;;;;;;2.57;1.30;;;;;;;10.13;95.93;100640.97;1690224;84;21004;-72
2022/10/05 03:06:29;;;;;;;3.60;1.80;;;;;;;10.14;95.61;100640.80;1676671;84;21532;-71
2022/10/05 03:09:06;;;;;;;2.90;1.40;;;;;;;10.11;95.56;100643.84;1688227;83;21016;-71
2022/10/05 03:11:50;;;;;;;4.40;1.00;;;;;;;10.10;95.82;100642.17;1686347;84;21063;-71
2022/10/05 03:14:34;;;;;;;2.47;1.47;;;;;;;10.10;95.76;100630.70;1662077;84;21052;-70
2022/10/05 03:17:05;;;;;;;2.03;1.37;;;;;;;10.10;95.60;100644.02;1675020;84;20980;-70
2022/10/05 03:20:03;;;;;;;2.40;1.20;;;;;;;10.08;95.23;100648.69;1694987;84;21089;-71
2022/10/05 03:22:58;;;;;;;1.82;1.42;;;;;;;10.05;95.13;100654.36;1675078;84;21111;-71
2022/10/05 03:26:00;;;;;;;1.83;1.40;;;;;;;9.98;95.38;100664.05;1686528;84;21027;-71
2022/10/05 03:28:44;;;;;;;2.40;2.20;;;;;;;9.97;95.56;100667.73;1685831;84;21064;-71
2022/10/05 03:31:37;;;;;;;2.00;1.57;;;;;;;9.98;95.31;100684.03;1681413;84;21057;-72
2022/10/05 03:34:10;;;;;;;1.87;1.77;;;;;;;9.98;95.30;100683.52;1687041;83;21052;-81
2022/10/05 03:36:44;;;;;;;1.50;1.33;;;;;;;9.63;94.92;100623.17;1645400;85;21103;-71
2022/10/05 03:39:47;;;;;;;1.93;0.97;;;;;;;9.97;94.66;100673.06;1686339;84;21579;-72
2022/10/05 03:42:25;;;;;;;3.70;1.47;;;;;;;10.00;94.67;100670.03;1678905;84;20969;-72
2022/10/05 03:45:19;;;;;;;2.30;1.50;;;;;;;9.97;94.26;100680.55;1684276;84;21001;-73
2022/10/05 03:47:51;;;;;;;2.83;1.70;;;;;;;9.99;94.46;100688.36;1687857;84;21171;-71
2022/10/05 03:50:26;;;;;;;1.70;1.50;;;;;;;9.99;94.46;100680.38;1688953;84;21081;-71
2022/10/05 03:53:07;;;;;;;2.80;1.10;;;;;;;10.01;94.46;100689.02;1685265;83;21036;-72
2022/10/05 03:55:38;;;;;;;6.20;1.80;;;;;;;10.03;94.39;100686.48;1685523;84;21047;-71
2022/10/05 03:58:13;;;;;;;2.77;1.57;;;;;;;10.02;94.35;100698.16;1687349;83;20983;-71
2022/10/05 04:00:42;;;;;;;3.10;1.80;;;;;;;10.02;94.18;100692.84;1685409;83;21056;-71
2022/10/05 04:03:23;;;;;;;1.70;1.60;;;;;;;10.03;94.23;100699.80;1685175;84;21100;-73
2022/10/05 04:06:07;;;;;;;2.03;1.63;;;;;;;10.05;94.31;100696.97;1676844;84;21051;-72
2022/10/05 04:08:58;;;;;;;1.27;1.27;;;;;;;10.05;94.21;100702.30;1691109;83;20972;-72
2022/10/05 04:11:45;;;;;;;1.30;1.20;;;;;;;10.03;94.26;100701.14;1667719;84;21104;-73
2022/10/05 04:14:20;;;;;;;2.08;1.55;;;;;;;10.01;93.99;100708.47;1677022;84;21002;-72
2022/10/05 04:16:54;;;;;;;2.23;1.43;;;;;;;10.03;94.28;100705.13;1671578;83;21036;-70
2022/10/05 04:19:35;;;;;;;4.63;1.70;;;;;;;10.05;94.21;100704.45;1677069;84;20997;-70
2022/10/05 04:22:24;;;;;;;2.00;1.63;;;;;;;10.07;94.22;100700.28;1680847;84;21168;-71
2022/10/05 04:24:59;;;;;;;2.43;1.97;;;;;;;10.08;93.41;100705.44;1684589;83;21683;-72
2022/10/05 04:27:38;;;;;;;2.10;1.87;;;;;;;10.09;93.77;100707.59;1686384;84;20997;-72
2022/10/05 04:30:21;;;;;;;1.67;1.57;;;;;;;10.13;93.59;100708.89;1688775;84;20984;-72
2022/10/05 04:32:56;;;;;;;7.53;4.00;;;;;;;10.14;93.55;100705.24;1684797;84;20952;-71
2022/10/05 04:35:51;;;;;;;5.53;3.17;;;;;;;10.17;93.65;100716.88;1686071;84;21084;-72
2022/10/05 04:38:35;;;;;;;1.77;1.67;;;;;;;10.16;93.97;100715.21;1642526;85;21526;-72
2022/10/05 04:41:25;;;;;;;7.37;2.97;;;;;;;10.16;93.66;100717.06;1634306;86;21002;-72
2022/10/05 04:44:15;;;;;;;6.60;2.03;;;;;;;10.14;93.83;100719.38;1689930;84;21028;-72
2022/10/05 04:48:53;;;;;;;3.52;2.05;;;;;;;10.08;93.96;100731.26;1799057;78;22158;-70
2022/10/05 04:51:34;;;;;;;1.43;1.33;;;;;;;10.03;94.23;100742.92;1661608;84;21575;-71
2022/10/05 04:54:36;;;;;;;3.60;1.83;;;;;;;10.06;94.21;100742.59;1715006;82;21012;-72
2022/10/05 04:57:13;;;;;;;1.90;1.50;;;;;;;10.04;94.50;100745.90;1721746;82;21107;-72
2022/10/05 05:00:13;;;;;;;4.47;1.83;;;;;;;10.01;94.77;100752.42;1721540;82;21079;-77
2022/10/05 05:03:05;;;;;;;5.17;1.87;;;;;;;10.06;95.18;100766.56;1706802;82;21032;-71
2022/10/05 05:06:15;;;;;;;3.63;1.50;;;;;;;10.10;94.98;100768.69;1698038;82;21042;-81
2022/10/05 05:09:12;;;;;;;3.57;1.47;;;;;;;10.10;94.74;100765.20;1714414;81;21064;-72
2022/10/05 05:12:15;;;;;;;4.27;1.97;;;;;;;10.07;95.04;100781.01;1637058;82;21089;-72
2022/10/05 05:15:03;;;;;;;2.93;1.30;;;;;;;10.08;95.34;100780.53;1719710;82;21894;-71
2022/10/05 05:17:51;;;;;;;2.77;2.00;;;;;;;10.11;95.41;100790.34;1704108;82;21010;-71
2022/10/05 05:20:46;;;;;;;2.30;1.85;;;;;;;10.14;95.16;100791.81;1674843;84;21065;-72
2022/10/05 05:23:45;;;;;;;5.63;2.43;;;;;;;10.16;95.04;100783.65;1643245;86;20992;-79
2022/10/05 05:26:28;;;;;;;6.83;3.43;;;;;;;10.19;94.88;100794.79;1639823;85;21012;-74
2022/10/05 05:29:32;;;;;;;3.67;1.97;;;;;;;9.88;94.43;100739.66;1611739;83;21060;-72
2022/10/05 05:32:10;;;;;;;2.07;1.60;;;;;;;10.25;94.39;100806.58;1693918;83;21065;-72
2022/10/05 05:35:04;;;;;;;1.90;1.80;;;;;;;10.29;94.10;100810.55;1701417;83;21081;-72
2022/10/05 05:37:42;;;;;;;2.40;2.20;;;;;;;10.30;94.09;100819.73;1689559;82;21132;-72
2022/10/05 05:40:55;;;;;;;2.53;1.77;;;;;;;10.31;94.30;100815.23;1700304;83;21000;-74
2022/10/05 05:44:03;;;;;;;4.10;2.80;;;;;;;10.31;94.50;100816.05;1709597;83;21002;-72
2022/10/05 05:46:43;;;;;;;5.20;2.77;;;;;;;10.34;94.34;100824.22;1692700;83;21053;-75
2022/10/05 05:49:25;;;;;;;4.37;3.37;;;;;;;10.39;94.39;100823.69;1685177;83;21236;-73
2022/10/05 05:52:02;;;;;;;13.40;11.33;;;;;;;10.46;94.00;100825.98;1687586;83;21484;-72
2022/10/05 05:54:40;;;;;;;5.07;4.47;;;;;;;10.49;93.65;100825.61;1694432;83;21028;-72
2022/10/05 05:57:30;;;;;;;5.93;5.27;;;;;;;10.51;93.43;100827.63;1689458;84;21054;-73
2022/10/05 06:00:07;;;;;;;5.40;2.63;;;;;;;10.58;93.32;100836.55;1687448;83;21049;-72
2022/10/05 06:03:04;;;;;;;3.37;2.43;;;;;;;10.61;92.69;100837.55;1657198;83;21498;-83
2022/10/05 06:05:48;;;;;;;2.13;1.90;;;;;;;10.63;92.63;100851.52;1665959;83;21031;-81
2022/10/05 06:08:40;;;;;;;1.40;1.30;;;;;;;10.67;92.20;100848.00;1676640;83;21037;-82
2022/10/05 06:11:17;;;;;;;4.23;2.03;;;;;;;10.70;92.37;100844.48;1681167;83;21051;-81
2022/10/05 06:13:44;;;;;;;1.92;1.40;;;;;;;10.80;91.68;100840.25;1687374;83;20990;-79
2022/10/05 06:16:22;;;;;;;5.00;2.23;;;;;;;10.97;90.65;100840.14;1631620;85;21063;-81
2022/10/05 06:19:04;;;;;;;2.30;1.55;;;;;;;11.09;90.60;100837.36;1701133;82;21037;-79
2022/10/05 06:21:48;;;;;;;2.05;1.47;;;;;;;11.29;88.46;100848.38;1691876;82;21144;-80
2022/10/05 06:24:35;;;;;;;3.30;1.87;;;;;;;11.42;87.96;100855.25;1694075;83;21029;-81
2022/10/05 06:27:27;;;;;;;8.23;1.47;;;;;;;11.49;87.54;100866.88;1720702;82;21126;-75
2022/10/05 06:30:14;;;;;;;2.30;1.73;;;;;;;11.49;86.21;100864.20;1691649;82;21106;-75
2022/10/05 06:33:17;;;;;;;4.72;2.05;;;;;;;11.47;86.73;100870.71;1701879;83;21514;-75
2022/10/05 06:36:10;;;;;;;1.75;1.47;;;;;;;11.45;86.83;100870.92;1695177;83;21090;-74
2022/10/05 06:39:07;;;;;;;4.15;1.20;;;;;;;11.46;87.02;100874.41;1695794;83;21038;-75
2022/10/05 06:42:15;;;;;;;0.90;0.75;;;;;;;11.44;86.08;100875.92;1695489;83;21510;-75
2022/10/05 06:45:19;;;;;;;2.12;1.98;;;;;;;11.36;85.39;100880.01;1660156;83;21088;-73
2022/10/05 06:48:17;;;;;;;5.83;1.30;;;;;;;11.27;86.16;100886.42;1690440;84;21026;-71
2022/10/05 06:50:57;;;;;;;1.00;1.00;;;;;;;11.22;85.44;100891.45;1693196;83;21089;-71
2022/10/05 06:54:36;;;;;;;3.63;1.67;;;;;;;11.23;85.66;100880.61;1689925;83;21085;-74
2022/10/05 06:57:11;;;;;;;2.15;1.52;;;;;;;11.23;85.93;100879.78;1686212;83;21046;-71
2022/10/05 07:00:07;;;;;;;3.15;2.10;;;;;;;11.19;86.62;100891.80;1689910;84;21534;-70
2022/10/05 07:03:02;;;;;;;4.20;1.98;;;;;;;11.27;87.12;100886.42;1690435;83;21039;-70
2022/10/05 07:06:05;;;;;;;1.65;1.07;;;;;;;11.42;87.11;100889.13;1695054;84;21000;-73
2022/10/05 07:09:07;;;;;;;6.45;1.20;;;;;;;11.62;86.77;100888.95;1700305;84;21018;-74
2022/10/05 07:11:52;;;;;;;2.22;1.00;;;;;;;11.91;85.59;100895.88;1658117;85;21027;-75
2022/10/05 07:14:36;;;;;;;4.75;1.27;;;;;;;12.13;84.14;100897.63;1702629;83;21062;-74
2022/10/05 07:17:45;;;;;;;2.15;1.07;;;;;;;12.33;82.64;100899.73;1699917;82;21131;-71
2022/10/05 07:20:32;;;;;;;1.37;1.12;;;;;;;12.44;80.64;100909.42;1702859;83;21058;-75
2022/10/05 07:23:24;;;;;;;3.30;0.98;;;;;;;12.50;80.22;100903.84;1716054;82;21054;-70
2022/10/05 07:26:09;;;;;;;1.22;1.12;;;;;;;12.56;78.33;100915.63;1677680;83;20959;-72
2022/10/05 07:28:50;;;;;;;1.57;1.17;;;;;;;12.59;78.74;100911.27;1698188;82;21503;-70
2022/10/05 07:31:34;;;;;;;3.37;1.45;;;;;;;12.61;78.88;100919.41;1695671;83;21627;-72
2022/10/05 07:34:34;;;;;;;1.95;1.55;;;;;;;12.63;78.58;100917.37;1710161;82;21112;-82
2022/10/05 07:40:04;;;;;;;3.15;0.80;;;;;;;12.59;77.07;100917.43;1690228;83;21014;-70
2022/10/05 07:42:51;;;;;;;0.82;0.82;;;;;;;12.55;76.13;100920.16;1695756;83;21023;-71
2022/10/05 07:45:34;;;;;;;2.40;0.60;;;;;;;12.59;76.78;100932.66;1693927;83;20970;-73
2022/10/05 07:48:32;;;;;;;0.53;0.53;;;;;;;12.72;77.17;100940.02;1692359;83;21078;-70
2022/10/05 07:51:35;;;;;;;1.75;0.55;;;;;;;12.53;75.58;100877.25;1698409;83;21492;-72
2022/10/05 07:54:31;;;;;;;1.30;0.57;;;;;;;12.94;73.49;100935.51;1690921;82;21567;-71
2022/10/05 07:57:12;;;;;;;1.62;0.30;;;;;;;12.98;73.44;100938.16;1677845;83;21041;-72
2022/10/05 07:59:53;;;;;;;3.05;1.17;;;;;;;12.99;73.17;100931.25;1686378;83;21113;-73
2022/10/05 08:02:37;;;;;;;1.65;0.30;;;;;;;12.98;73.40;100933.62;1688205;84;21030;-73
2022/10/05 08:05:27;;;;;;;2.15;0.50;;;;;;;12.99;73.13;100927.23;1700998;81;21334;-71
2022/10/05 08:08:27;;;;;;;3.08;0.82;;;;;;;12.98;72.81;100932.28;1742812;81;21009;-70
2022/10/05 08:11:08;;;;;;;3.02;0.82;;;;;;;12.86;73.20;100931.11;1718121;81;21638;-71
2022/10/05 08:14:00;;;;;;;4.92;2.87;;;;;;;12.78;74.55;100931.23;1721451;81;21110;-72
2022/10/05 08:16:31;;;;;;;1.47;1.20;;;;;;;12.75;74.44;100927.58;1709946;82;21058;-71
2022/10/05 08:19:29;;;;;;;1.77;0.60;;;;;;;12.69;74.47;100933.17;1728887;82;21009;-73
2022/10/05 08:22:03;;;;;;;1.05;0.80;;;;;;;12.63;73.33;100932.08;1697695;82;21049;-73
2022/10/05 08:24:43;;;;;;;0.88;0.53;;;;;;;12.60;73.69;100936.48;1692927;83;21490;-70
2022/10/05 08:27:26;;;;;;;1.27;1.17;;;;;;;12.59;73.65;100933.47;1662167;85;21001;-74
2022/10/05 08:30:10;;;;;;;5.58;4.08;;;;;;;12.63;72.73;100937.43;1690098;83;20975;-72
2022/10/05 08:33:12;;;;;;;3.83;0.88;;;;;;;12.75;73.54;100943.63;1686891;83;21009;-72
2022/10/05 08:35:43;;;;;;;1.27;1.00;;;;;;;12.85;71.92;100944.18;1717838;82;21064;-70
2022/10/05 08:38:15;;;;;;;1.15;0.45;;;;;;;12.94;71.70;100943.53;1693886;82;21053;-70
2022/10/05 08:41:16;;;;;;;1.05;0.72;;;;;;;13.01;70.96;100945.27;1677494;83;21073;-72
2022/10/05 08:44:21;;;;;;;1.82;0.68;;;;;;;13.05;71.26;100941.70;1693556;83;21055;-72
2022/10/05 08:47:01;;;;;;;1.00;0.57;;;;;;;13.11;70.83;100949.00;1652703;85;21070;-71
2022/10/05 08:49:55;;;;;;;0.42;0.37;;;;;;;13.16;70.64;100951.09;1687011;83;21052;-71
2022/10/05 08:52:52;;;;;;;1.53;0.70;;;;;;;13.20;70.50;100960.39;1689711;83;21739;-75
2022/10/05 08:56:05;;;;;;;1.82;0.55;;;;;;;13.22;70.42;100959.69;1684242;83;21013;-70
2022/10/05 08:59:01;;;;;;;3.40;0.68;;;;;;;13.22;70.88;100967.72;1676119;83;21605;-73
2022/10/05 09:02:14;;;;;;;0.70;0.30;;;;;;;13.14;70.52;100965.99;1692105;82;20959;-74
2022/10/05 09:05:01;;;;;;;0.30;0.30;;;;;;;13.13;69.71;100964.35;1700977;82;21089;-73
2022/10/05 09:08:05;;;;;;;7.17;0.85;;;;;;;13.15;68.48;100966.84;1710312;82;21010;-73
2022/10/05 09:11:08;;;;;;;0.40;0.40;;;;;;;13.19;67.92;100964.10;1711591;82;21075;-74
2022/10/05 09:13:49;;;;;;;1.52;0.93;;;;;;;13.30;68.23;100965.42;1707093;83;21083;-73
2022/10/05 09:17:03;;;;;;;2.40;0.30;;;;;;;13.37;67.92;100977.92;1698855;83;21097;-74
2022/10/05 09:19:54;;;;;;;0.70;0.30;;;;;;;13.42;67.19;100974.13;1698227;82;21050;-72
2022/10/05 09:22:50;;;;;;;1.72;0.70;;;;;;;13.35;68.12;100971.89;1697260;83;21038;-72
2022/10/05 09:25:45;;;;;;;1.65;0.30;;;;;;;13.30;68.55;100960.95;1716392;81;21022;-74
2022/10/05 09:28:56;;;;;;;1.15;0.40;;;;;;;13.16;67.08;100961.80;1723842;81;20983;-72
2022/10/05 09:32:01;;;;;;;0.98;0.30;;;;;;;13.05;67.73;100966.64;1629211;86;21007;-73
2022/10/05 09:34:33;;;;;;;1.30;0.50;;;;;;;13.01;67.93;100969.34;1677111;84;21455;-75
2022/10/05 09:37:26;;;;;;;2.25;0.50;;;;;;;12.98;68.77;100975.09;1671410;84;21042;-72
2022/10/05 09:40:43;;;;;;;1.50;0.57;;;;;;;12.99;69.44;100975.41;1638354;84;21037;-73
2022/10/05 09:43:45;;;;;;;1.27;0.65;;;;;;;13.07;68.40;100977.65;1670052;84;21615;-73
2022/10/05 09:46:37;;;;;;;1.42;0.30;;;;;;;13.17;68.13;100976.84;1705142;83;21482;-72
2022/10/05 09:49:41;;;;;;;2.45;0.98;;;;;;;13.23;67.24;100974.22;1710350;82;21013;-74
2022/10/05 09:52:22;;;;;;;1.75;0.68;;;;;;;13.27;67.44;100979.21;1732560;81;21022;-73
2022/10/05 09:55:29;;;;;;;1.82;0.80;;;;;;;13.31;67.55;100989.37;1711934;83;21019;-74
2022/10/05 09:58:29;;;;;;;1.10;0.60;;;;;;;13.33;67.85;100987.33;1712384;82;20986;-74
2022/10/05 10:00:57;;;;;;;;;;;;;;;13.33;68.96;100984.64;1710735;82;21023;-73
2022/10/05 10:04:09;;;;;;;1.20;0.30;;;;;;;13.36;68.33;100981.59;1719954;82;20148;-74
2022/10/05 10:07:12;;;;;;;1.45;0.45;;;;;;;13.34;67.62;100980.97;1687663;85;21086;-73
2022/10/05 10:10:07;;;;;;;1.40;0.75;;;;;;;13.34;67.31;100975.61;1660606;85;21092;-74
2022/10/05 10:13:22;;;;;;;1.27;0.50;;;;;;;13.31;67.40;100980.52;1659755;85;21105;-75
2022/10/05 10:16:22;;;;;;;1.15;0.50;;;;;;;13.30;68.26;100981.03;1687825;83;21053;-74
2022/10/05 10:19:12;;;;;;;1.65;0.40;;;;;;;13.30;68.32;100987.73;1678142;83;21077;-80
2022/10/05 10:22:13;;;;;;;5.22;0.60;;;;;;;13.38;69.06;100987.59;1668941;83;21480;-74
2022/10/05 10:25:08;;;;;;;2.17;0.65;;;;;;;13.51;69.06;100978.86;1707603;82;21015;-75
2022/10/05 10:28:02;;;;;;;0.95;0.47;;;;;;;13.65;67.44;100984.34;1716675;82;21037;-71
2022/10/05 10:30:46;;;;;;;1.98;0.68;;;;;;;13.75;66.42;100996.87;1714566;83;21027;-72
2022/10/05 10:33:52;;;;;;;1.10;0.80;;;;;;;13.80;66.44;100993.94;1682654;83;21490;-73
2022/10/05 10:37:07;;;;;;;1.12;0.70;;;;;;;13.81;66.43;100995.61;1684353;84;21543;-74
2022/10/05 10:40:10;;;;;;;0.98;0.98;;;;;;;13.80;66.70;100997.14;1711312;82;21018;-73
2022/10/05 10:42:55;;;;;;;1.37;1.15;;;;;;;13.81;66.06;100997.47;1713070;83;21670;-74
2022/10/05 10:45:48;;;;;;;2.87;0.78;;;;;;;13.86;65.87;100997.69;1708616;83;20987;-74
2022/10/05 10:48:31;;;;;;;0.82;0.57;;;;;;;13.91;66.21;101005.17;1699232;82;21174;-73
2022/10/05 10:51:35;;;;;;;7.37;0.80;;;;;;;13.96;65.70;100994.18;1738303;81;21101;-74
2022/10/05 10:54:48;;;;;;;4.67;1.07;;;;;;;13.96;65.52;100990.68;1745886;80;21542;-72
2022/10/05 10:57:32;;;;;;;2.25;0.60;;;;;;;13.95;66.42;100989.02;1723830;81;21436;-72
2022/10/05 11:00:34;;;;;;;1.95;0.60;;;;;;;13.94;66.09;100994.89;1692875;83;20986;-73
2022/10/05 11:03:32;;;;;;;3.22;1.15;;;;;;;13.91;65.82;100995.27;1688247;83;21093;-72
2022/10/05 11:06:22;;;;;;;1.25;1.15;;;;;;;13.96;65.59;100993.36;1669762;84;21046;-74
2022/10/05 11:09:25;;;;;;;1.22;0.70;;;;;;;14.03;64.97;100986.17;1671177;84;21442;-74
2022/10/05 11:12:04;;;;;;;0.98;0.68;;;;;;;14.02;64.29;100980.52;1672431;84;21579;-72
2022/10/05 11:14:48;;;;;;;0.93;0.88;;;;;;;14.00;64.42;100977.20;1694353;83;21526;-75
2022/10/05 11:17:57;;;;;;;2.50;0.42;;;;;;;14.05;65.52;100977.94;1683683;84;20995;-76
2022/10/05 11:21:03;;;;;;;1.02;0.75;;;;;;;14.10;65.03;100973.66;1699104;83;21164;-75
2022/10/05 11:23:49;;;;;;;1.00;0.65;;;;;;;14.08;64.48;100962.30;1697347;83;21061;-72
2022/10/05 11:26:55;;;;;;;1.40;1.25;;;;;;;14.05;65.00;100985.98;1673182;85;20951;-74
2022/10/05 11:29:51;;;;;;;0.93;0.30;;;;;;;14.05;65.40;100982.78;1696897;83;21010;-75
2022/10/05 11:33:03;;;;;;;0.93;0.80;;;;;;;14.10;64.67;100979.02;1679662;82;21158;-74
2022/10/05 11:35:50;;;;;;;1.95;0.55;;;;;;;14.06;64.81;100981.77;1706367;82;21059;-74
2022/10/05 11:38:48;;;;;;;4.08;0.65;;;;;;;13.96;65.43;100972.74;1728250;81;21026;-72
2022/10/05 11:41:35;;;;;;;1.22;0.50;;;;;;;13.90;65.00;100984.73;1710953;82;20982;-71
2022/10/05 11:44:31;;;;;;;1.25;0.53;;;;;;;13.84;66.32;100986.34;1705876;83;21187;-72
2022/10/05 11:47:20;;;;;;;1.55;0.78;;;;;;;13.84;66.70;100982.33;1704745;82;21027;-73
2022/10/05 11:50:09;;;;;;;1.72;0.30;;;;;;;13.83;65.83;100974.80;1705033;83;21003;-72
2022/10/05 11:52:56;;;;;;;1.02;0.80;;;;;;;13.81;65.71;100976.85;1695782;83;21079;-72
2022/10/05 11:55:31;;;;;;;3.02;0.55;;;;;;;13.77;66.16;100974.25;1698763;83;21011;-74
2022/10/05 11:58:06;;;;;;;2.75;2.25;;;;;;;13.76;66.67;100982.47;1706121;83;21519;-72
2022/10/05 12:00:41;;;;;;;1.70;1.00;;;;;;;13.78;66.88;100987.95;1695753;83;21136;-72
2022/10/05 12:03:46;;;;;;;1.27;0.98;;;;;;;13.84;66.58;100985.00;1723979;82;20987;-71
2022/10/05 12:06:36;;;;;;;1.62;1.17;;;;;;;13.87;66.64;100995.86;1714328;82;21045;-72
2022/10/05 12:09:22;;;;;;;2.87;0.65;;;;;;;13.87;66.92;100997.20;1712991;82;21041;-76
2022/10/05 12:12:06;;;;;;;3.85;1.10;;;;;;;13.88;66.84;100999.70;1713380;82;21105;-76
2022/10/05 12:15:04;;;;;;;2.98;1.10;;;;;;;13.88;67.65;101004.20;1675253;84;21011;-74
2022/10/05 12:17:39;;;;;;;6.83;1.37;;;;;;;13.89;67.60;101006.70;1672841;84;21593;-73
2022/10/05 12:20:26;;;;;;;2.52;0.75;;;;;;;13.90;67.15;101013.73;1704645;82;21566;-72
2022/10/05 12:23:19;;;;;;;1.70;0.93;;;;;;;13.94;67.42;101022.21;1693135;84;21038;-73
2022/10/05 12:26:02;;;;;;;2.58;0.62;;;;;;;13.95;67.01;101021.17;1667155;85;21100;-72
2022/10/05 12:28:46;;;;;;;1.98;1.37;;;;;;;13.93;66.43;101020.02;1675329;83;20963;-74
2022/10/05 12:31:21;;;;;;;1.20;0.90;;;;;;;13.92;67.06;101029.09;1702030;82;21003;-73
2022/10/05 12:34:08;;;;;;;4.83;3.92;;;;;;;13.93;66.98;101025.38;1711294;83;21006;-71
2022/10/05 12:37:30;;;;;;;3.08;2.20;;;;;;;13.98;66.50;101035.02;1701421;83;21485;-71
2022/10/05 12:40:16;;;;;;;4.62;2.85;;;;;;;13.96;66.55;101034.91;1701951;83;21024;-72
2022/10/05 12:43:16;;;;;;;1.62;1.10;;;;;;;13.93;67.06;101046.00;1716029;83;21090;-73
2022/10/05 12:46:05;;;;;;;1.40;1.00;;;;;;;13.85;65.92;101042.95;1693849;83;21011;-72
2022/10/05 12:49:03;;;;;;;5.10;1.02;;;;;;;13.77;65.91;101042.57;1677590;84;21035;-71
2022/10/05 12:51:38;;;;;;;1.45;0.62;;;;;;;13.74;66.61;101045.62;1681746;82;21032;-72
2022/10/05 12:54:49;;;;;;;1.77;0.35;;;;;;;13.73;66.68;101040.45;1703743;83;21045;-73
2022/10/05 12:57:33;;;;;;;0.60;0.50;;;;;;;13.70;67.26;101047.03;1681305;83;21028;-74
2022/10/05 13:00:16;;;;;;;1.75;0.95;;;;;;;13.69;67.12;101049.38;1684088;84;21507;-71
2022/10/05 13:02:59;;;;;;;0.65;0.20;;;;;;;13.69;66.82;101038.66;1681241;84;21573;-71
2022/10/05 13:05:40;;;;;;;1.20;0.40;;;;;;;13.68;66.68;101046.39;1681079;84;21064;-71
2022/10/05 13:08:30;;;;;;;0.88;0.57;;;;;;;13.66;66.85;101047.62;1699417;82;21016;-71
2022/10/05 13:11:20;;;;;;;0.60;0.50;;;;;;;13.60;66.89;101050.03;1698518;83;21100;-82